Crew | Aerofun Virtual



 METAR AND TAF INFORMATION
METAR FOR LELO
ADDS - METARS form results

(0828 UTC 22 July 2019)
Data provider http://aviationweather.gov/metar/data/
 
METAR text: LELO 220800Z VRB02KT CAVOK 24/20 Q1023
Conditions at: LELO (LOGRONO/AGONCILL, ES) observed 0800 UTC 22 July 2019
Temperature: 24.0°C (75°F)
Dewpoint: 20.0°C (68°F) [RH = 78%]
Pressure (altimeter): 30.21 inches Hg (1023.0 mb)
Winds: variable direction winds at 2 MPH (2 knots; 1.0 m/s)
Visibility: 6 or more miles (10+ km)
Ceiling: ceiling and visibility are OK
Clouds: unknown
Weather: no significant weather observed at this time

METAR text: LELO 220730Z 00000KT CAVOK 23/20 Q1023
Conditions at: LELO (LOGRONO/AGONCILL, ES) observed 0730 UTC 22 July 2019
Temperature: 23.0°C (73°F)
Dewpoint: 20.0°C (68°F) [RH = 83%]
Pressure (altimeter): 30.21 inches Hg (1023.0 mb)
Winds: calm
Visibility: 6 or more miles (10+ km)
Ceiling: ceiling and visibility are OK
Clouds: unknown
Weather: no significant weather observed at this time

Forecast for: LELO (LOGRONO/AGONCILL, ES)
Text: TAF LELO 220800Z 2209/2218 10010KT CAVOK
Forecast period: 0900 to 1800 UTC 22 July 2019
Forecast type: FROM: standard forecast or significant change
Winds: from the E (100 degrees) at 12 MPH (10 knots; 5.1 m/s)
Visibility: 6 or more miles 10+ km)
Ceiling: unknown
Clouds: missing
Weather: NSW  (no significant weather)
Text: PROB40
Forecast period: 1500 to 1800 UTC 22 July 2019
Forecast type: TEMPORARY: The following changes expected for less than half the time period
Visibility: missing
Ceiling: at least 12,000 feet AGL
Clouds: few clouds at 4000 feet AGL
Weather: no significant weather forecast for this period

 AIRPORT MAP

 RUNWAY INFORMATION

 AIRPORT FREQUENCIES

 AIRPORT NEAR NAVIGATION AIDS
Type NDB Name Logrono Frequency 399 KHZ